首页
METAR-TAF:

METAR-TAF

机场 :

Owatonna Degner Regional Airport

Owatonna, 明尼蘇達州, 美国

纬度: 44-07N, 经度: 093-15W, 海拔: 350米

当前天气观测

该预报发布于43分钟前的23:34 UTC
风速8节,风向西转西北
温度 21°C
湿度 73%
气压 1005 hPa
能見度: 16.1公里
天空无云

METAR: KOWA 242334Z AUTO 30008KT 10SM CLR 21/16 A2967 RMK AO2

时间: 19:17 (00:17 UTC)


TAF: 丢失

超过4000个机场的气象观测和天气预报(METAR&TAF报告)。

可查询的气象台以黄色和红色小点在地图上表示。

将鼠标移到小点上方,可查看气象台名称。

然后点击查看天气观测和预报。

如需切换地图:点击带黑十字的绿色按钮放大地图;点击带横线的绿色按钮缩小地图;或者点击绿色箭头查看邻近地区的地图。


METAR-TAF: